Terminal Aerodrome Forecast
Issued by NWS

Home | Current Version | Previous Version | Text Only | Print | Product List | Glossary Off
Versions: 1 2 3 4 5 6 7 8 9 10 11 12 13 14 15

000
FTUS45 KGGW 251720
TAFGDV
TAF
KGDV 251720Z 2518/2618 34011KT P6SM VCSH SCT020 BKN100
      TEMPO 2518/2521 -SHRA OVC020
     FM260000 33009KT P6SM VCSH SCT020 BKN100
     FM261200 29007KT P6SM BKN060
      AMD LTD TO CLD VIS AND WIND=

USA.gov is the U.S. government's official web portal to all federal, state and local government web resources and services.